sensor_id;sensor_type;location;lat;lon;timestamp;P1;durP1;ratioP1;P2;durP2;ratioP2
62990;SDS011;49084;48.204;16.202;2022-08-01T00:01:50;5.10;;;4.57;;
62990;SDS011;49084;48.204;16.202;2022-08-01T00:04:15;4.95;;;4.28;;
62990;SDS011;49084;48.204;16.202;2022-08-01T00:06:41;6.65;;;4.22;;
62990;SDS011;49084;48.204;16.202;2022-08-01T00:11:51;6.65;;;4.70;;
62990;SDS011;49084;48.204;16.202;2022-08-01T00:14:17;4.93;;;4.53;;
62990;SDS011;49084;48.204;16.202;2022-08-01T00:16:43;5.82;;;4.10;;
62990;SDS011;49084;48.204;16.202;2022-08-01T00:19:09;5.97;;;4.40;;
62990;SDS011;49084;48.204;16.202;2022-08-01T00:21:35;5.90;;;4.47;;
62990;SDS011;49084;48.204;16.202;2022-08-01T00:24:00;4.90;;;4.40;;
62990;SDS011;49084;48.204;16.202;2022-08-01T00:26:26;4.63;;;4.25;;
62990;SDS011;49084;48.204;16.202;2022-08-01T00:28:52;5.00;;;4.60;;
62990;SDS011;49084;48.204;16.202;2022-08-01T00:31:17;5.25;;;4.55;;
62990;SDS011;49084;48.204;16.202;2022-08-01T00:33:43;8.38;;;5.00;;
62990;SDS011;49084;48.204;16.202;2022-08-01T00:36:09;6.28;;;5.13;;
62990;SDS011;49084;48.204;16.202;2022-08-01T00:38:34;4.90;;;4.50;;
62990;SDS011;49084;48.204;16.202;2022-08-01T00:41:00;7.22;;;5.25;;
62990;SDS011;49084;48.204;16.202;2022-08-01T00:43:26;4.68;;;4.28;;
62990;SDS011;49084;48.204;16.202;2022-08-01T00:45:51;5.03;;;4.57;;
62990;SDS011;49084;48.204;16.202;2022-08-01T00:48:17;5.68;;;5.00;;
62990;SDS011;49084;48.204;16.202;2022-08-01T00:50:43;7.18;;;4.97;;
62990;SDS011;49084;48.204;16.202;2022-08-01T00:53:08;6.78;;;5.55;;
62990;SDS011;49084;48.204;16.202;2022-08-01T00:55:34;7.70;;;5.35;;
62990;SDS011;49084;48.204;16.202;2022-08-01T00:58:00;5.50;;;5.03;;
62990;SDS011;49084;48.204;16.202;2022-08-01T01:00:26;5.15;;;4.75;;
62990;SDS011;49084;48.204;16.202;2022-08-01T01:02:52;6.00;;;5.05;;
62990;SDS011;49084;48.204;16.202;2022-08-01T01:05:18;5.22;;;4.72;;
62990;SDS011;49084;48.204;16.202;2022-08-01T01:07:54;5.82;;;4.70;;
62990;SDS011;49084;48.204;16.202;2022-08-01T01:13:02;6.75;;;5.22;;
62990;SDS011;49084;48.204;16.202;2022-08-01T01:20:42;5.50;;;5.00;;
62990;SDS011;49084;48.204;16.202;2022-08-01T01:23:32;6.93;;;5.60;;
62990;SDS011;49084;48.204;16.202;2022-08-01T01:29:15;5.63;;;5.03;;
62990;SDS011;49084;48.204;16.202;2022-08-01T01:31:51;6.53;;;5.07;;
62990;SDS011;49084;48.204;16.202;2022-08-01T01:34:28;6.00;;;5.38;;
62990;SDS011;49084;48.204;16.202;2022-08-01T01:36:56;5.37;;;4.90;;
62990;SDS011;49084;48.204;16.202;2022-08-01T01:39:25;6.43;;;5.72;;
62990;SDS011;49084;48.204;16.202;2022-08-01T01:41:53;6.30;;;5.60;;
62990;SDS011;49084;48.204;16.202;2022-08-01T01:44:21;8.50;;;5.85;;
62990;SDS011;49084;48.204;16.202;2022-08-01T01:46:47;6.07;;;5.53;;
62990;SDS011;49084;48.204;16.202;2022-08-01T01:49:14;5.68;;;5.10;;
62990;SDS011;49084;48.204;16.202;2022-08-01T01:51:42;5.70;;;4.63;;
62990;SDS011;49084;48.204;16.202;2022-08-01T01:54:09;8.40;;;4.53;;
62990;SDS011;49084;48.204;16.202;2022-08-01T01:56:35;5.55;;;4.90;;
62990;SDS011;49084;48.204;16.202;2022-08-01T01:59:13;5.13;;;4.63;;
62990;SDS011;49084;48.204;16.202;2022-08-01T02:01:44;5.30;;;4.80;;
62990;SDS011;49084;48.204;16.202;2022-08-01T02:04:12;5.28;;;4.70;;
62990;SDS011;49084;48.204;16.202;2022-08-01T02:06:39;5.65;;;5.18;;
62990;SDS011;49084;48.204;16.202;2022-08-01T02:09:06;6.60;;;4.70;;
62990;SDS011;49084;48.204;16.202;2022-08-01T02:11:34;4.90;;;4.38;;
62990;SDS011;49084;48.204;16.202;2022-08-01T02:16:29;8.00;;;4.45;;
62990;SDS011;49084;48.204;16.202;2022-08-01T02:19:02;6.65;;;4.18;;
62990;SDS011;49084;48.204;16.202;2022-08-01T02:21:44;4.63;;;4.22;;
62990;SDS011;49084;48.204;16.202;2022-08-01T02:24:14;5.32;;;4.53;;
62990;SDS011;49084;48.204;16.202;2022-08-01T02:26:49;5.22;;;4.82;;
62990;SDS011;49084;48.204;16.202;2022-08-01T02:29:20;4.68;;;4.20;;
62990;SDS011;49084;48.204;16.202;2022-08-01T02:31:49;4.80;;;4.35;;
62990;SDS011;49084;48.204;16.202;2022-08-01T02:34:19;5.43;;;5.03;;
62990;SDS011;49084;48.204;16.202;2022-08-01T02:36:46;7.18;;;4.60;;
62990;SDS011;49084;48.204;16.202;2022-08-01T02:39:13;7.60;;;4.40;;
62990;SDS011;49084;48.204;16.202;2022-08-01T02:41:43;4.63;;;4.32;;
62990;SDS011;49084;48.204;16.202;2022-08-01T02:44:15;5.07;;;4.43;;
62990;SDS011;49084;48.204;16.202;2022-08-01T02:46:57;5.10;;;4.32;;
62990;SDS011;49084;48.204;16.202;2022-08-01T02:49:27;5.28;;;4.78;;
62990;SDS011;49084;48.204;16.202;2022-08-01T02:51:56;5.22;;;4.78;;
62990;SDS011;49084;48.204;16.202;2022-08-01T02:54:22;5.78;;;4.53;;
62990;SDS011;49084;48.204;16.202;2022-08-01T02:56:50;4.53;;;4.13;;
62990;SDS011;49084;48.204;16.202;2022-08-01T02:59:18;5.93;;;4.72;;
62990;SDS011;49084;48.204;16.202;2022-08-01T03:01:50;4.35;;;3.92;;
62990;SDS011;49084;48.204;16.202;2022-08-01T03:04:20;3.97;;;3.63;;
62990;SDS011;49084;48.204;16.202;2022-08-01T03:06:51;4.72;;;4.18;;
62990;SDS011;49084;48.204;16.202;2022-08-01T03:09:18;5.53;;;4.30;;
62990;SDS011;49084;48.204;16.202;2022-08-01T03:11:46;4.45;;;3.92;;
62990;SDS011;49084;48.204;16.202;2022-08-01T03:14:14;5.73;;;3.83;;
62990;SDS011;49084;48.204;16.202;2022-08-01T03:16:41;6.82;;;4.13;;
62990;SDS011;49084;48.204;16.202;2022-08-01T03:19:08;4.90;;;3.92;;
62990;SDS011;49084;48.204;16.202;2022-08-01T03:21:36;4.78;;;4.35;;
62990;SDS011;49084;48.204;16.202;2022-08-01T03:24:04;4.97;;;4.05;;
62990;SDS011;49084;48.204;16.202;2022-08-01T03:26:32;6.38;;;4.65;;
62990;SDS011;49084;48.204;16.202;2022-08-01T03:29:02;5.75;;;3.85;;
62990;SDS011;49084;48.204;16.202;2022-08-01T03:31:37;5.28;;;4.78;;
62990;SDS011;49084;48.204;16.202;2022-08-01T03:34:03;7.35;;;4.20;;
62990;SDS011;49084;48.204;16.202;2022-08-01T03:36:30;5.90;;;4.28;;
62990;SDS011;49084;48.204;16.202;2022-08-01T03:38:58;4.97;;;4.22;;
62990;SDS011;49084;48.204;16.202;2022-08-01T03:41:29;4.47;;;4.07;;
62990;SDS011;49084;48.204;16.202;2022-08-01T03:44:07;4.95;;;4.55;;
62990;SDS011;49084;48.204;16.202;2022-08-01T03:46:43;8.77;;;3.85;;
62990;SDS011;49084;48.204;16.202;2022-08-01T03:49:16;5.18;;;4.10;;
62990;SDS011;49084;48.204;16.202;2022-08-01T03:51:45;4.60;;;4.20;;
62990;SDS011;49084;48.204;16.202;2022-08-01T03:54:14;4.75;;;4.32;;
62990;SDS011;49084;48.204;16.202;2022-08-01T03:56:45;4.68;;;4.13;;
62990;SDS011;49084;48.204;16.202;2022-08-01T03:59:14;4.93;;;3.83;;
62990;SDS011;49084;48.204;16.202;2022-08-01T04:01:40;5.07;;;3.95;;
62990;SDS011;49084;48.204;16.202;2022-08-01T04:04:06;4.97;;;3.92;;
62990;SDS011;49084;48.204;16.202;2022-08-01T04:06:32;7.95;;;3.78;;
62990;SDS011;49084;48.204;16.202;2022-08-01T04:08:58;4.63;;;3.70;;
62990;SDS011;49084;48.204;16.202;2022-08-01T04:11:24;4.57;;;4.18;;
62990;SDS011;49084;48.204;16.202;2022-08-01T04:13:51;6.38;;;4.35;;
62990;SDS011;49084;48.204;16.202;2022-08-01T04:16:18;4.93;;;4.47;;
62990;SDS011;49084;48.204;16.202;2022-08-01T04:18:44;6.85;;;5.00;;
62990;SDS011;49084;48.204;16.202;2022-08-01T04:21:10;5.60;;;4.53;;
62990;SDS011;49084;48.204;16.202;2022-08-01T04:23:36;3.90;;;3.50;;
62990;SDS011;49084;48.204;16.202;2022-08-01T04:26:06;6.03;;;3.90;;
62990;SDS011;49084;48.204;16.202;2022-08-01T04:28:33;4.00;;;3.60;;
62990;SDS011;49084;48.204;16.202;2022-08-01T04:31:01;5.35;;;3.58;;
62990;SDS011;49084;48.204;16.202;2022-08-01T04:33:28;7.00;;;4.13;;
62990;SDS011;49084;48.204;16.202;2022-08-01T04:35:55;4.38;;;3.90;;
62990;SDS011;49084;48.204;16.202;2022-08-01T04:38:24;4.85;;;3.78;;
62990;SDS011;49084;48.204;16.202;2022-08-01T04:40:54;6.88;;;3.80;;
62990;SDS011;49084;48.204;16.202;2022-08-01T04:43:21;11.68;;;3.90;;
62990;SDS011;49084;48.204;16.202;2022-08-01T04:45:47;4.60;;;4.20;;
62990;SDS011;49084;48.204;16.202;2022-08-01T04:48:15;4.82;;;4.28;;
62990;SDS011;49084;48.204;16.202;2022-08-01T04:53:17;4.90;;;3.70;;
62990;SDS011;49084;48.204;16.202;2022-08-01T04:55:43;4.88;;;3.70;;
62990;SDS011;49084;48.204;16.202;2022-08-01T04:58:10;6.07;;;3.45;;
62990;SDS011;49084;48.204;16.202;2022-08-01T05:00:37;4.72;;;3.42;;
62990;SDS011;49084;48.204;16.202;2022-08-01T05:03:03;5.72;;;3.92;;
62990;SDS011;49084;48.204;16.202;2022-08-01T05:05:29;7.45;;;3.70;;
62990;SDS011;49084;48.204;16.202;2022-08-01T05:07:55;3.95;;;3.20;;
62990;SDS011;49084;48.204;16.202;2022-08-01T05:10:21;6.30;;;4.03;;
62990;SDS011;49084;48.204;16.202;2022-08-01T05:12:46;3.83;;;3.20;;
62990;SDS011;49084;48.204;16.202;2022-08-01T05:15:12;5.63;;;3.05;;
62990;SDS011;49084;48.204;16.202;2022-08-01T05:17:38;4.80;;;3.08;;
62990;SDS011;49084;48.204;16.202;2022-08-01T05:20:03;8.18;;;3.90;;
62990;SDS011;49084;48.204;16.202;2022-08-01T05:22:31;5.20;;;3.20;;
62990;SDS011;49084;48.204;16.202;2022-08-01T05:24:57;6.30;;;3.63;;
62990;SDS011;49084;48.204;16.202;2022-08-01T05:27:24;3.90;;;3.22;;
62990;SDS011;49084;48.204;16.202;2022-08-01T05:29:50;3.22;;;2.92;;
62990;SDS011;49084;48.204;16.202;2022-08-01T05:32:16;4.97;;;3.38;;
62990;SDS011;49084;48.204;16.202;2022-08-01T05:34:42;6.30;;;3.53;;
62990;SDS011;49084;48.204;16.202;2022-08-01T05:37:11;3.55;;;3.05;;
62990;SDS011;49084;48.204;16.202;2022-08-01T05:39:37;3.45;;;3.15;;
62990;SDS011;49084;48.204;16.202;2022-08-01T05:42:02;4.93;;;3.25;;
62990;SDS011;49084;48.204;16.202;2022-08-01T05:44:28;6.00;;;3.17;;
62990;SDS011;49084;48.204;16.202;2022-08-01T05:46:54;7.85;;;3.42;;
62990;SDS011;49084;48.204;16.202;2022-08-01T05:49:19;6.25;;;2.58;;
62990;SDS011;49084;48.204;16.202;2022-08-01T05:51:45;4.20;;;3.17;;
62990;SDS011;49084;48.204;16.202;2022-08-01T05:54:11;3.50;;;3.20;;
62990;SDS011;49084;48.204;16.202;2022-08-01T05:56:36;5.97;;;2.95;;
62990;SDS011;49084;48.204;16.202;2022-08-01T05:59:02;3.47;;;3.15;;
62990;SDS011;49084;48.204;16.202;2022-08-01T06:01:28;3.40;;;3.08;;
62990;SDS011;49084;48.204;16.202;2022-08-01T06:03:53;5.35;;;3.15;;
62990;SDS011;49084;48.204;16.202;2022-08-01T06:06:22;4.63;;;3.38;;
62990;SDS011;49084;48.204;16.202;2022-08-01T06:08:48;3.72;;;2.78;;
62990;SDS011;49084;48.204;16.202;2022-08-01T06:11:14;3.80;;;2.92;;
62990;SDS011;49084;48.204;16.202;2022-08-01T06:13:39;2.95;;;2.70;;
62990;SDS011;49084;48.204;16.202;2022-08-01T06:16:05;3.63;;;2.38;;
62990;SDS011;49084;48.204;16.202;2022-08-01T06:18:31;2.60;;;2.40;;
62990;SDS011;49084;48.204;16.202;2022-08-01T06:20:56;4.85;;;2.65;;
62990;SDS011;49084;48.204;16.202;2022-08-01T06:23:22;2.75;;;2.55;;
62990;SDS011;49084;48.204;16.202;2022-08-01T06:25:48;4.13;;;2.80;;
62990;SDS011;49084;48.204;16.202;2022-08-01T06:30:42;6.05;;;3.17;;
62990;SDS011;49084;48.204;16.202;2022-08-01T06:33:08;3.22;;;2.97;;
62990;SDS011;49084;48.204;16.202;2022-08-01T06:35:34;3.75;;;2.30;;
62990;SDS011;49084;48.204;16.202;2022-08-01T06:37:59;3.28;;;2.30;;
62990;SDS011;49084;48.204;16.202;2022-08-01T06:40:25;4.18;;;2.50;;
62990;SDS011;49084;48.204;16.202;2022-08-01T06:42:51;3.05;;;2.15;;
62990;SDS011;49084;48.204;16.202;2022-08-01T06:45:16;4.75;;;2.35;;
62990;SDS011;49084;48.204;16.202;2022-08-01T06:47:43;6.07;;;2.50;;
62990;SDS011;49084;48.204;16.202;2022-08-01T06:50:10;5.75;;;1.95;;
62990;SDS011;49084;48.204;16.202;2022-08-01T06:52:36;3.20;;;2.38;;
62990;SDS011;49084;48.204;16.202;2022-08-01T06:55:02;3.30;;;2.40;;
62990;SDS011;49084;48.204;16.202;2022-08-01T06:57:28;2.00;;;1.70;;
62990;SDS011;49084;48.204;16.202;2022-08-01T06:59:54;4.22;;;1.90;;
62990;SDS011;49084;48.204;16.202;2022-08-01T07:02:21;2.03;;;1.80;;
62990;SDS011;49084;48.204;16.202;2022-08-01T07:04:47;3.05;;;2.13;;
62990;SDS011;49084;48.204;16.202;2022-08-01T07:07:13;4.25;;;1.90;;
62990;SDS011;49084;48.204;16.202;2022-08-01T07:09:38;2.00;;;1.80;;
62990;SDS011;49084;48.204;16.202;2022-08-01T07:12:06;6.25;;;1.90;;
62990;SDS011;49084;48.204;16.202;2022-08-01T07:14:32;2.33;;;1.83;;
62990;SDS011;49084;48.204;16.202;2022-08-01T07:16:57;3.85;;;1.73;;
62990;SDS011;49084;48.204;16.202;2022-08-01T07:19:23;2.40;;;2.20;;
62990;SDS011;49084;48.204;16.202;2022-08-01T07:21:49;3.38;;;1.80;;
62990;SDS011;49084;48.204;16.202;2022-08-01T07:24:14;6.65;;;2.05;;
62990;SDS011;49084;48.204;16.202;2022-08-01T07:26:44;2.10;;;1.90;;
62990;SDS011;49084;48.204;16.202;2022-08-01T07:29:11;2.03;;;1.80;;
62990;SDS011;49084;48.204;16.202;2022-08-01T07:31:36;5.07;;;2.17;;
62990;SDS011;49084;48.204;16.202;2022-08-01T07:34:03;1.70;;;1.60;;
62990;SDS011;49084;48.204;16.202;2022-08-01T07:36:29;3.10;;;1.63;;
62990;SDS011;49084;48.204;16.202;2022-08-01T07:38:54;2.08;;;1.88;;
62990;SDS011;49084;48.204;16.202;2022-08-01T07:41:20;3.60;;;1.95;;
62990;SDS011;49084;48.204;16.202;2022-08-01T07:43:46;3.92;;;2.45;;
62990;SDS011;49084;48.204;16.202;2022-08-01T07:46:14;3.15;;;1.90;;
62990;SDS011;49084;48.204;16.202;2022-08-01T07:48:39;2.97;;;2.08;;
62990;SDS011;49084;48.204;16.202;2022-08-01T07:51:05;4.10;;;1.98;;
62990;SDS011;49084;48.204;16.202;2022-08-01T07:53:31;3.70;;;1.63;;
62990;SDS011;49084;48.204;16.202;2022-08-01T07:55:56;2.97;;;2.33;;
62990;SDS011;49084;48.204;16.202;2022-08-01T07:58:22;5.15;;;2.63;;
62990;SDS011;49084;48.204;16.202;2022-08-01T08:00:48;6.03;;;1.98;;
62990;SDS011;49084;48.204;16.202;2022-08-01T08:03:13;6.95;;;1.92;;
62990;SDS011;49084;48.204;16.202;2022-08-01T08:05:39;5.70;;;1.60;;
62990;SDS011;49084;48.204;16.202;2022-08-01T08:08:05;3.60;;;1.80;;
62990;SDS011;49084;48.204;16.202;2022-08-01T08:10:32;1.38;;;1.33;;
62990;SDS011;49084;48.204;16.202;2022-08-01T08:12:58;2.28;;;1.67;;
62990;SDS011;49084;48.204;16.202;2022-08-01T08:15:24;1.65;;;1.40;;
62990;SDS011;49084;48.204;16.202;2022-08-01T08:17:49;1.63;;;1.52;;
62990;SDS011;49084;48.204;16.202;2022-08-01T08:20:15;1.63;;;1.52;;
62990;SDS011;49084;48.204;16.202;2022-08-01T08:22:41;2.25;;;1.42;;
62990;SDS011;49084;48.204;16.202;2022-08-01T08:25:07;1.88;;;1.33;;
62990;SDS011;49084;48.204;16.202;2022-08-01T08:27:34;1.27;;;1.25;;
62990;SDS011;49084;48.204;16.202;2022-08-01T08:30:00;2.00;;;1.23;;
62990;SDS011;49084;48.204;16.202;2022-08-01T08:32:27;2.13;;;1.50;;
62990;SDS011;49084;48.204;16.202;2022-08-01T08:34:52;2.90;;;1.50;;
62990;SDS011;49084;48.204;16.202;2022-08-01T08:37:18;2.65;;;1.85;;
62990;SDS011;49084;48.204;16.202;2022-08-01T08:39:44;1.95;;;1.45;;
62990;SDS011;49084;48.204;16.202;2022-08-01T08:42:10;2.45;;;1.58;;
62990;SDS011;49084;48.204;16.202;2022-08-01T08:44:36;2.08;;;1.70;;
62990;SDS011;49084;48.204;16.202;2022-08-01T08:47:04;4.65;;;1.58;;
62990;SDS011;49084;48.204;16.202;2022-08-01T08:49:32;3.20;;;1.58;;
62990;SDS011;49084;48.204;16.202;2022-08-01T08:51:59;2.53;;;1.70;;
62990;SDS011;49084;48.204;16.202;2022-08-01T08:54:26;4.70;;;2.55;;
62990;SDS011;49084;48.204;16.202;2022-08-01T08:56:53;1.33;;;1.25;;
62990;SDS011;49084;48.204;16.202;2022-08-01T08:59:19;3.53;;;1.80;;
62990;SDS011;49084;48.204;16.202;2022-08-01T09:01:46;1.88;;;1.60;;
62990;SDS011;49084;48.204;16.202;2022-08-01T09:04:12;2.78;;;1.58;;
62990;SDS011;49084;48.204;16.202;2022-08-01T09:06:38;2.90;;;1.77;;
62990;SDS011;49084;48.204;16.202;2022-08-01T09:09:05;3.47;;;1.60;;
62990;SDS011;49084;48.204;16.202;2022-08-01T09:11:32;3.20;;;1.90;;
62990;SDS011;49084;48.204;16.202;2022-08-01T09:16:29;1.73;;;1.63;;
62990;SDS011;49084;48.204;16.202;2022-08-01T09:19:05;2.20;;;2.00;;
62990;SDS011;49084;48.204;16.202;2022-08-01T09:21:33;3.00;;;2.03;;
62990;SDS011;49084;48.204;16.202;2022-08-01T09:23:59;2.53;;;1.83;;
62990;SDS011;49084;48.204;16.202;2022-08-01T09:26:31;2.10;;;1.98;;
62990;SDS011;49084;48.204;16.202;2022-08-01T09:29:00;2.55;;;1.90;;
62990;SDS011;49084;48.204;16.202;2022-08-01T09:31:38;5.55;;;2.05;;
62990;SDS011;49084;48.204;16.202;2022-08-01T09:34:05;2.30;;;2.10;;
62990;SDS011;49084;48.204;16.202;2022-08-01T09:39:30;2.90;;;1.77;;
62990;SDS011;49084;48.204;16.202;2022-08-01T09:44:47;4.20;;;1.83;;
62990;SDS011;49084;48.204;16.202;2022-08-01T09:47:14;2.20;;;2.00;;
62990;SDS011;49084;48.204;16.202;2022-08-01T09:49:41;3.35;;;2.00;;
62990;SDS011;49084;48.204;16.202;2022-08-01T09:57:16;2.03;;;1.90;;
62990;SDS011;49084;48.204;16.202;2022-08-01T09:59:46;4.63;;;2.15;;
62990;SDS011;49084;48.204;16.202;2022-08-01T10:04:57;2.33;;;2.13;;
62990;SDS011;49084;48.204;16.202;2022-08-01T10:07:22;3.17;;;2.63;;
62990;SDS011;49084;48.204;16.202;2022-08-01T10:09:48;3.42;;;2.38;;
62990;SDS011;49084;48.204;16.202;2022-08-01T10:12:15;3.10;;;2.15;;
62990;SDS011;49084;48.204;16.202;2022-08-01T10:14:45;2.20;;;2.00;;
62990;SDS011;49084;48.204;16.202;2022-08-01T10:17:15;2.30;;;2.10;;
62990;SDS011;49084;48.204;16.202;2022-08-01T10:19:42;1.58;;;1.48;;
62990;SDS011;49084;48.204;16.202;2022-08-01T10:22:10;1.95;;;1.85;;
62990;SDS011;49084;48.204;16.202;2022-08-01T10:24:45;2.10;;;1.90;;
62990;SDS011;49084;48.204;16.202;2022-08-01T10:27:13;1.98;;;1.88;;
62990;SDS011;49084;48.204;16.202;2022-08-01T10:32:07;1.83;;;1.70;;
62990;SDS011;49084;48.204;16.202;2022-08-01T10:34:35;4.25;;;1.73;;
62990;SDS011;49084;48.204;16.202;2022-08-01T10:37:02;2.53;;;2.10;;
62990;SDS011;49084;48.204;16.202;2022-08-01T10:39:30;6.90;;;2.60;;
62990;SDS011;49084;48.204;16.202;2022-08-01T10:41:59;2.70;;;2.10;;
62990;SDS011;49084;48.204;16.202;2022-08-01T10:44:26;2.50;;;2.20;;
62990;SDS011;49084;48.204;16.202;2022-08-01T10:47:04;3.20;;;2.03;;
62990;SDS011;49084;48.204;16.202;2022-08-01T10:49:41;3.33;;;1.88;;
62990;SDS011;49084;48.204;16.202;2022-08-01T10:52:19;2.83;;;2.40;;
62990;SDS011;49084;48.204;16.202;2022-08-01T10:54:45;1.73;;;1.58;;
62990;SDS011;49084;48.204;16.202;2022-08-01T10:57:10;1.85;;;1.75;;
62990;SDS011;49084;48.204;16.202;2022-08-01T10:59:47;3.13;;;1.60;;
62990;SDS011;49084;48.204;16.202;2022-08-01T11:02:25;2.13;;;1.80;;
62990;SDS011;49084;48.204;16.202;2022-08-01T11:05:04;3.83;;;1.83;;
62990;SDS011;49084;48.204;16.202;2022-08-01T11:10:15;1.98;;;1.85;;
62990;SDS011;49084;48.204;16.202;2022-08-01T11:12:57;4.93;;;1.90;;
62990;SDS011;49084;48.204;16.202;2022-08-01T11:15:25;10.63;;;2.28;;
62990;SDS011;49084;48.204;16.202;2022-08-01T11:17:53;1.83;;;1.48;;
62990;SDS011;49084;48.204;16.202;2022-08-01T11:25:24;6.93;;;2.17;;
62990;SDS011;49084;48.204;16.202;2022-08-01T11:30:48;4.30;;;1.92;;
62990;SDS011;49084;48.204;16.202;2022-08-01T11:33:16;7.60;;;2.05;;
62990;SDS011;49084;48.204;16.202;2022-08-01T11:38:43;2.67;;;2.08;;
62990;SDS011;49084;48.204;16.202;2022-08-01T11:43:59;1.88;;;1.73;;
62990;SDS011;49084;48.204;16.202;2022-08-01T11:57:13;2.75;;;1.65;;
62990;SDS011;49084;48.204;16.202;2022-08-01T11:59:46;3.65;;;1.73;;
62990;SDS011;49084;48.204;16.202;2022-08-01T12:05:00;1.58;;;1.48;;
62990;SDS011;49084;48.204;16.202;2022-08-01T12:07:28;2.05;;;1.63;;
62990;SDS011;49084;48.204;16.202;2022-08-01T12:10:06;3.40;;;2.00;;
62990;SDS011;49084;48.204;16.202;2022-08-01T12:12:33;1.63;;;1.52;;
62990;SDS011;49084;48.204;16.202;2022-08-01T12:15:00;1.52;;;1.13;;
62990;SDS011;49084;48.204;16.202;2022-08-01T12:19:59;2.25;;;1.20;;
62990;SDS011;49084;48.204;16.202;2022-08-01T12:22:25;0.90;;;0.90;;
62990;SDS011;49084;48.204;16.202;2022-08-01T12:24:51;1.70;;;0.63;;
62990;SDS011;49084;48.204;16.202;2022-08-01T12:27:27;1.00;;;0.90;;
62990;SDS011;49084;48.204;16.202;2022-08-01T12:29:54;1.00;;;1.00;;
62990;SDS011;49084;48.204;16.202;2022-08-01T12:32:26;0.95;;;0.68;;
62990;SDS011;49084;48.204;16.202;2022-08-01T12:34:56;0.93;;;0.93;;
62990;SDS011;49084;48.204;16.202;2022-08-01T12:37:27;1.20;;;1.10;;
62990;SDS011;49084;48.204;16.202;2022-08-01T12:39:52;2.05;;;1.00;;
62990;SDS011;49084;48.204;16.202;2022-08-01T12:42:18;1.95;;;1.27;;
62990;SDS011;49084;48.204;16.202;2022-08-01T12:44:45;2.10;;;1.63;;
62990;SDS011;49084;48.204;16.202;2022-08-01T12:47:14;2.17;;;1.40;;
62990;SDS011;49084;48.204;16.202;2022-08-01T12:49:40;2.05;;;1.20;;
62990;SDS011;49084;48.204;16.202;2022-08-01T12:52:08;4.68;;;1.15;;
62990;SDS011;49084;48.204;16.202;2022-08-01T12:57:29;4.75;;;1.40;;
62990;SDS011;49084;48.204;16.202;2022-08-01T13:00:12;1.40;;;1.30;;
62990;SDS011;49084;48.204;16.202;2022-08-01T13:02:39;1.98;;;1.15;;
62990;SDS011;49084;48.204;16.202;2022-08-01T13:05:06;3.13;;;1.50;;
62990;SDS011;49084;48.204;16.202;2022-08-01T13:07:37;1.95;;;1.38;;
62990;SDS011;49084;48.204;16.202;2022-08-01T13:10:05;2.45;;;1.48;;
62990;SDS011;49084;48.204;16.202;2022-08-01T13:12:31;2.70;;;1.60;;
62990;SDS011;49084;48.204;16.202;2022-08-01T13:14:57;2.72;;;1.90;;
62990;SDS011;49084;48.204;16.202;2022-08-01T13:17:30;1.52;;;1.40;;
62990;SDS011;49084;48.204;16.202;2022-08-01T13:20:04;1.58;;;1.48;;
62990;SDS011;49084;48.204;16.202;2022-08-01T13:22:33;1.60;;;1.50;;
62990;SDS011;49084;48.204;16.202;2022-08-01T13:25:15;2.10;;;1.35;;
62990;SDS011;49084;48.204;16.202;2022-08-01T13:27:41;1.80;;;1.30;;
62990;SDS011;49084;48.204;16.202;2022-08-01T13:32:40;0.90;;;0.90;;
62990;SDS011;49084;48.204;16.202;2022-08-01T13:35:09;0.93;;;0.93;;
62990;SDS011;49084;48.204;16.202;2022-08-01T13:37:38;1.17;;;1.08;;
62990;SDS011;49084;48.204;16.202;2022-08-01T13:40:06;3.92;;;1.23;;
62990;SDS011;49084;48.204;16.202;2022-08-01T13:42:33;1.88;;;1.13;;
62990;SDS011;49084;48.204;16.202;2022-08-01T13:44:59;1.30;;;1.20;;
62990;SDS011;49084;48.204;16.202;2022-08-01T13:47:25;1.00;;;0.90;;
62990;SDS011;49084;48.204;16.202;2022-08-01T13:49:51;3.13;;;1.15;;
62990;SDS011;49084;48.204;16.202;2022-08-01T13:52:17;1.48;;;1.05;;
62990;SDS011;49084;48.204;16.202;2022-08-01T13:54:43;0.90;;;0.90;;
62990;SDS011;49084;48.204;16.202;2022-08-01T13:57:08;1.02;;;0.93;;
62990;SDS011;49084;48.204;16.202;2022-08-01T13:59:34;0.77;;;0.65;;
62990;SDS011;49084;48.204;16.202;2022-08-01T14:02:00;0.90;;;0.90;;
62990;SDS011;49084;48.204;16.202;2022-08-01T14:04:26;1.85;;;0.80;;
62990;SDS011;49084;48.204;16.202;2022-08-01T14:06:52;1.48;;;0.80;;
62990;SDS011;49084;48.204;16.202;2022-08-01T14:09:18;1.60;;;0.70;;
62990;SDS011;49084;48.204;16.202;2022-08-01T14:11:44;1.83;;;0.82;;
62990;SDS011;49084;48.204;16.202;2022-08-01T14:14:10;0.80;;;0.70;;
62990;SDS011;49084;48.204;16.202;2022-08-01T14:16:36;1.33;;;0.68;;
62990;SDS011;49084;48.204;16.202;2022-08-01T14:19:04;0.70;;;0.70;;
62990;SDS011;49084;48.204;16.202;2022-08-01T14:21:30;0.70;;;0.70;;
62990;SDS011;49084;48.204;16.202;2022-08-01T14:23:56;1.08;;;0.60;;
62990;SDS011;49084;48.204;16.202;2022-08-01T14:26:22;1.00;;;0.70;;
62990;SDS011;49084;48.204;16.202;2022-08-01T14:28:47;1.42;;;0.55;;
62990;SDS011;49084;48.204;16.202;2022-08-01T14:31:13;2.50;;;0.73;;
62990;SDS011;49084;48.204;16.202;2022-08-01T14:33:39;0.60;;;0.60;;
62990;SDS011;49084;48.204;16.202;2022-08-01T14:36:04;1.77;;;0.60;;
62990;SDS011;49084;48.204;16.202;2022-08-01T14:38:30;3.53;;;0.70;;
62990;SDS011;49084;48.204;16.202;2022-08-01T14:40:56;0.68;;;0.68;;
62990;SDS011;49084;48.204;16.202;2022-08-01T14:43:22;0.95;;;0.80;;
62990;SDS011;49084;48.204;16.202;2022-08-01T14:45:47;0.93;;;0.57;;
62990;SDS011;49084;48.204;16.202;2022-08-01T14:48:18;0.80;;;0.80;;
62990;SDS011;49084;48.204;16.202;2022-08-01T14:50:43;3.20;;;0.95;;
62990;SDS011;49084;48.204;16.202;2022-08-01T14:53:09;1.00;;;0.90;;
62990;SDS011;49084;48.204;16.202;2022-08-01T14:55:35;1.33;;;0.98;;
62990;SDS011;49084;48.204;16.202;2022-08-01T14:58:00;1.10;;;1.00;;
62990;SDS011;49084;48.204;16.202;2022-08-01T15:00:26;1.00;;;1.00;;
62990;SDS011;49084;48.204;16.202;2022-08-01T15:02:52;0.75;;;0.73;;
62990;SDS011;49084;48.204;16.202;2022-08-01T15:05:17;0.80;;;0.80;;
62990;SDS011;49084;48.204;16.202;2022-08-01T15:07:43;0.93;;;0.90;;
62990;SDS011;49084;48.204;16.202;2022-08-01T15:10:09;0.90;;;0.90;;
62990;SDS011;49084;48.204;16.202;2022-08-01T15:12:34;1.30;;;1.20;;
62990;SDS011;49084;48.204;16.202;2022-08-01T15:15:00;1.75;;;1.10;;
62990;SDS011;49084;48.204;16.202;2022-08-01T15:17:30;1.05;;;1.00;;
62990;SDS011;49084;48.204;16.202;2022-08-01T15:19:58;1.27;;;1.25;;
62990;SDS011;49084;48.204;16.202;2022-08-01T15:22:25;1.70;;;1.10;;
62990;SDS011;49084;48.204;16.202;2022-08-01T15:24:52;1.02;;;1.00;;
62990;SDS011;49084;48.204;16.202;2022-08-01T15:27:19;1.63;;;1.27;;
62990;SDS011;49084;48.204;16.202;2022-08-01T15:29:46;1.55;;;1.25;;
62990;SDS011;49084;48.204;16.202;2022-08-01T15:32:12;1.35;;;1.25;;
62990;SDS011;49084;48.204;16.202;2022-08-01T15:34:39;1.45;;;1.35;;
62990;SDS011;49084;48.204;16.202;2022-08-01T15:37:05;2.05;;;1.33;;
62990;SDS011;49084;48.204;16.202;2022-08-01T15:39:32;1.38;;;1.27;;
62990;SDS011;49084;48.204;16.202;2022-08-01T15:41:58;2.08;;;1.88;;
62990;SDS011;49084;48.204;16.202;2022-08-01T15:44:25;2.20;;;1.27;;
62990;SDS011;49084;48.204;16.202;2022-08-01T15:46:50;1.13;;;1.13;;
62990;SDS011;49084;48.204;16.202;2022-08-01T15:49:16;5.05;;;1.40;;
62990;SDS011;49084;48.204;16.202;2022-08-01T15:51:43;1.70;;;1.40;;
62990;SDS011;49084;48.204;16.202;2022-08-01T15:54:09;1.65;;;1.55;;